ADDS METAR Data INFO
IDs: Format: Raw Decoded Include TAF

Data at: 1040 UTC 16 Jul 2018

KW96 161035Z AUTO 00000KT 10SM CLR 23/21 A3001 RMK AO1 T02330206
KW96 161015Z AUTO 17005KT 10SM CLR 24/21 A3001 RMK AO1 T02350206
KW96 160955Z AUTO 18004KT 10SM CLR 24/20 A3001 RMK AO1 T02360204
KW96 160935Z AUTO 19006KT 10SM CLR 24/20 A3001 RMK AO1 T02370204
KW96 160915Z AUTO 20006KT 10SM CLR 24/20 A3001 RMK AO1 T02380203
KW96 160855Z AUTO 22003KT 10SM CLR 24/21 A3001 RMK AO1 T02380205
KW96 160835Z AUTO 19005KT 10SM CLR 24/21 A3001 RMK AO1 T02390205
KW96 160815Z AUTO 19003KT 10SM CLR 24/21 A3001 RMK AO1 T02400205
KW96 160755Z AUTO 17004KT 10SM CLR 24/21 A3001 RMK AO1 T02400206
KW96 160735Z AUTO 18003KT 10SM CLR 24/21 A3001 RMK AO1 T02410205
KW96 160715Z AUTO 19003KT 10SM CLR 24/21 A3001 RMK AO1 T02420205
KW96 160655Z AUTO 21004KT 10SM CLR 24/21 A3001 RMK AO1 T02420205
KW96 160635Z AUTO 20004KT 10SM CLR 25/21 A3001 RMK AO1 T02450206
KW96 160615Z AUTO 18003KT 10SM CLR 25/21 A3001 RMK AO1 T02450207
KW96 160555Z AUTO 19005KT 10SM CLR 25/21 A3002 RMK AO1 T02490205 10284 20249
KW96 160535Z AUTO 17005KT 10SM CLR 25/21 A3002 RMK AO1 T02500205
KW96 160515Z AUTO 18006KT 10SM CLR 25/21 A3002 RMK AO1 T02500207
KW96 160455Z AUTO 00000KT 10SM CLR 25/21 A3003 RMK AO1 T02520209 403200190
KW96 160435Z AUTO 00000KT 10SM CLR 26/21 A3003 RMK AO1 T02550209
KW96 160415Z AUTO 15003KT 10SM CLR 25/21 A3003 RMK AO1 T02530212
KW96 160355Z AUTO 00000KT 10SM CLR 26/22 A3003 RMK AO1 T02550215
KW96 160335Z AUTO 11006KT 10SM CLR 26/22 A3002 RMK AO1 T02570218
KW96 160315Z AUTO 14003KT 10SM CLR 26/22 A3002 RMK AO1 T02550222
KW96 160255Z AUTO 10006KT 10SM CLR 25/23 A3002 RMK AO1 T02530230
KW96 160235Z AUTO 10SM CLR 26/23 A3001 RMK AO1 T02560232
KW96 160215Z AUTO 10SM CLR 25/25 A3001 RMK AO1 T02510247
KW96 160155Z AUTO 09007KT 10SM CLR 25/25 A3001 RMK AO1 T02510248
KW96 160135Z AUTO 10006KT 10SM CLR 26/24 A3001 RMK AO1 T02590236
KW96 160115Z AUTO 12003KT 10SM CLR 26/23 A3000 RMK AO1 T02620231
KW96 160055Z AUTO 00000KT 10SM CLR 26/24 A2999 RMK AO1 T02610236
KW96 160035Z AUTO 00000KT 10SM CLR 28/23 A2999 RMK AO1 T02780228
KW96 160015Z AUTO 00000KT 10SM CLR 28/23 A2998 RMK AO1 T02820230
KW96 152355Z AUTO 00000KT 10SM CLR 28/23 A2998 RMK AO1 T02840230 10320 20284
KW96 152335Z AUTO 00000KT 10SM CLR 29/23 A2998 RMK AO1 T02870230
KW96 152315Z AUTO 00000KT 10SM CLR 29/23 A2998 RMK AO1 T02890228
KW96 152255Z AUTO 00000KT 10SM CLR 29/23 A2997 RMK AO1 T02910227
KW96 152235Z AUTO 14003KT 10SM CLR 30/23 A2998 RMK AO1 T02970226
KW96 152215Z AUTO 16003KT 10SM CLR 30/23 A2998 RMK AO1 T03020226
KW96 152155Z AUTO 00000KT 10SM CLR 30/23 A2998 RMK AO1 T03010227
KW96 152135Z AUTO 00000KT 10SM CLR 31/22 A2998 RMK AO1 T03060223
KW96 152115Z AUTO 00000KT 10SM CLR 31/22 A2998 RMK AO1 T03090222
KW96 152055Z AUTO 19004KT 10SM CLR 31/22 A2998 RMK AO1 T03130218
KW96 152035Z AUTO 17004KT 10SM CLR 32/22 A2999 RMK AO1 T03180219
KW96 152015Z AUTO 16004KT 10SM CLR 31/22 A3000 RMK AO1 T03130219
KW96 151955Z AUTO 18003KT 10SM CLR 32/22 A3000 RMK AO1 T03170215
KW96 151935Z AUTO 00000KT 10SM CLR 31/21 A3001 RMK AO1 T03140212
KW96 151915Z AUTO 22003KT 10SM CLR 32/22 A3001 RMK AO1 T03160215
KW96 151855Z AUTO 19004KT 10SM CLR 32/20 A3001 RMK AO1 T03160204
KW96 151835Z AUTO 19003KT 10SM CLR 31/21 A3002 RMK AO1 T03130212
KW96 151815Z AUTO 15004KT 10SM CLR 31/21 A3002 RMK AO1 T03140213
KW96 151755Z AUTO 18005KT 10SM CLR 31/21 A3003 RMK AO1 T03080210 10309 20215
KW96 151735Z AUTO 16004KT 10SM CLR 31/21 A3003 RMK AO1 T03060207
KW96 151715Z AUTO 10SM CLR 30/20 A3004 RMK AO1 T03040201
KW96 151655Z AUTO 10SM CLR 30/20 A3004 RMK AO1 T03010204
KW96 151635Z AUTO 10SM CLR 30/20 A3005 RMK AO1 T03000201
KW96 151615Z AUTO 22004KT 10SM CLR 29/20 A3004 RMK AO1 T02930201
KW96 151555Z AUTO 18004KT 10SM CLR 29/21 A3005 RMK AO1 T02930205
KW96 151535Z AUTO 22003KT 10SM CLR 29/20 A3005 RMK AO1 T02850203
KW96 151515Z AUTO 24003KT 10SM CLR 28/20 A3005 RMK AO1 T02770202
KW96 151455Z AUTO 22005KT 10SM CLR 27/20 A3005 RMK AO1 T02740201
KW96 151435Z AUTO 23004KT 10SM CLR 27/20 A3005 RMK AO1 T02700202
KW96 151415Z AUTO 21003KT 10SM CLR 26/20 A3005 RMK AO1 T02610201
KW96 151355Z AUTO 21005KT 10SM CLR 26/20 A3006 RMK AO1 T02560198
KW96 151335Z AUTO 22005KT 10SM CLR 25/20 A3006 RMK AO1 T02470198
KW96 151315Z AUTO 22006KT 10SM CLR 24/20 A3006 RMK AO1 T02400199
KW96 151255Z AUTO 23004KT 10SM CLR 24/20 A3006 RMK AO1 T02350198
KW96 151235Z AUTO 22004KT 10SM CLR 23/20 A3007 RMK AO1 T02270196
KW96 151215Z AUTO 20003KT 10SM CLR 22/20 A3008 RMK AO1 T02200195
KW96 151155Z AUTO 19004KT 10SM CLR 22/19 A3008 RMK AO1 T02150194 10215 20190
KW96 151135Z AUTO 00000KT 10SM CLR 21/19 A3008 RMK AO1 T02080194
KW96 151115Z AUTO 00000KT 10SM CLR 20/19 A3008 RMK AO1 T02030193
KW96 151055Z AUTO 00000KT 10SM CLR 20/20 A3008 RMK AO1 T02000197
KW96 151035Z AUTO 00000KT 10SM CLR 20/20 A3008 RMK AO1 T01950195
KW96 151015Z AUTO 00000KT 10SM CLR 20/20 A3008 RMK AO1 T01950195
KW96 150955Z AUTO 00000KT 10SM CLR 19/19 A3008 RMK AO1 T01930193
KW96 150935Z AUTO 00000KT 10SM CLR 19/19 A3008 RMK AO1 T01910191
KW96 150915Z AUTO 00000KT 10SM CLR 20/20 A3008 RMK AO1 T01950195
KW96 150855Z AUTO 00000KT 10SM CLR 20/20 A3008 RMK AO1 T01960196
KW96 150835Z AUTO 00000KT 10SM CLR 20/20 A3008 RMK AO1 T01950195
KW96 150815Z AUTO 00000KT 10SM CLR 20/20 A3008 RMK AO1 T01970197
KW96 150755Z AUTO 00000KT 10SM CLR 20/20 A3008 RMK AO1 T01950195
KW96 150735Z AUTO 00000KT 10SM CLR 20/19 A3008 RMK AO1 T01950194
KW96 150715Z AUTO 00000KT 10SM CLR 20/19 A3009 RMK AO1 T02000194
KW96 150655Z AUTO 00000KT 10SM CLR 20/19 A3010 RMK AO1 T01980191
KW96 150635Z AUTO 00000KT 10SM CLR 20/19 A3010 RMK AO1 T02040185
KW96 150615Z AUTO 00000KT 10SM CLR 21/18 A3010 RMK AO1 T02050183
KW96 150555Z AUTO 00000KT 10SM CLR 21/18 A3011 RMK AO1 T02050181 10272 20204
KW96 150535Z AUTO 17003KT 10SM CLR 21/18 A3011 RMK AO1 T02050181
KW96 150515Z AUTO 17003KT 10SM CLR 21/18 A3012 RMK AO1 T02060182
KW96 150455Z AUTO 18003KT 10SM CLR 21/18 A3012 RMK AO1 T02140181 403060140
KW96 150435Z AUTO 19003KT 10SM CLR 22/18 A3013 RMK AO1 T02160183
KW96 150415Z AUTO 18004KT 10SM CLR 22/18 A3012 RMK AO1 T02190184
KW96 150355Z AUTO 19004KT 10SM CLR 22/18 A3012 RMK AO1 T02220183
KW96 150335Z AUTO 19004KT 10SM CLR 22/18 A3011 RMK AO1 T02230182
KW96 150315Z AUTO 18006KT 10SM CLR 22/18 A3010 RMK AO1 T02240182
KW96 150255Z AUTO 14004KT 10SM CLR 21/18 A3010 RMK AO1 T02080184
KW96 150235Z AUTO 11003KT 10SM CLR 22/18 A3011 RMK AO1 T02180181
KW96 150215Z AUTO 00000KT 10SM CLR 23/18 A3010 RMK AO1 T02300180
KW96 150155Z AUTO 13004KT 10SM CLR 24/18 A3009 RMK AO1 T02370179
KW96 150135Z AUTO 14003KT 10SM CLR 24/18 A3009 RMK AO1 T02390176
KW96 150115Z AUTO 00000KT 10SM CLR 24/18 A3008 RMK AO1 T02390176
KW96 150055Z AUTO 00000KT 10SM CLR 25/17 A3008 RMK AO1 T02450173
KW96 150035Z AUTO 00000KT 10SM CLR 26/17 A3008 RMK AO1 T02580170
KW96 150015Z AUTO 13004KT 10SM CLR 27/17 A3008 RMK AO1 T02660165
KW96 142355Z AUTO 11006KT 10SM CLR 27/18 A3008 RMK AO1 T02740175 10306 20274
KW96 142335Z AUTO 00000KT 10SM CLR 28/17 A3008 RMK AO1 T02810173
KW96 142315Z AUTO 10SM CLR 29/17 A3008 RMK AO1 T02860170
KW96 142255Z AUTO 00000KT 10SM CLR 29/15 A3009 RMK AO1 T02940151